sensor_id;sensor_type;location;lat;lon;timestamp;P1;durP1;ratioP1;P2;durP2;ratioP2
1885;SDS011;943;51.568;6.998;2023-02-11T00:01:29;55.07;;;28.73;;
1885;SDS011;943;51.568;6.998;2023-02-11T00:04:02;47.03;;;27.00;;
1885;SDS011;943;51.568;6.998;2023-02-11T00:06:33;47.90;;;28.67;;
1885;SDS011;943;51.568;6.998;2023-02-11T00:09:02;44.10;;;27.07;;
1885;SDS011;943;51.568;6.998;2023-02-11T00:11:31;48.70;;;27.73;;
1885;SDS011;943;51.568;6.998;2023-02-11T00:14:01;50.63;;;29.13;;
1885;SDS011;943;51.568;6.998;2023-02-11T00:16:33;50.70;;;28.57;;
1885;SDS011;943;51.568;6.998;2023-02-11T00:19:02;41.43;;;25.47;;
1885;SDS011;943;51.568;6.998;2023-02-11T00:21:32;41.00;;;24.03;;
1885;SDS011;943;51.568;6.998;2023-02-11T00:24:01;43.83;;;26.10;;
1885;SDS011;943;51.568;6.998;2023-02-11T00:26:30;37.97;;;23.80;;
1885;SDS011;943;51.568;6.998;2023-02-11T00:29:02;44.57;;;25.70;;
1885;SDS011;943;51.568;6.998;2023-02-11T00:31:31;43.40;;;25.50;;
1885;SDS011;943;51.568;6.998;2023-02-11T00:34:00;44.03;;;25.73;;
1885;SDS011;943;51.568;6.998;2023-02-11T00:36:28;43.07;;;26.20;;
1885;SDS011;943;51.568;6.998;2023-02-11T00:38:57;43.80;;;24.70;;
1885;SDS011;943;51.568;6.998;2023-02-11T00:41:26;39.60;;;24.63;;
1885;SDS011;943;51.568;6.998;2023-02-11T00:43:57;38.13;;;23.60;;
1885;SDS011;943;51.568;6.998;2023-02-11T00:46:27;36.77;;;23.67;;
1885;SDS011;943;51.568;6.998;2023-02-11T00:48:55;44.63;;;24.87;;
1885;SDS011;943;51.568;6.998;2023-02-11T00:51:24;33.73;;;22.77;;
1885;SDS011;943;51.568;6.998;2023-02-11T00:53:54;38.03;;;23.30;;
1885;SDS011;943;51.568;6.998;2023-02-11T00:56:22;51.70;;;23.13;;
1885;SDS011;943;51.568;6.998;2023-02-11T00:58:50;35.40;;;21.50;;
1885;SDS011;943;51.568;6.998;2023-02-11T01:01:19;37.27;;;23.60;;
1885;SDS011;943;51.568;6.998;2023-02-11T01:03:47;34.60;;;21.30;;
1885;SDS011;943;51.568;6.998;2023-02-11T01:06:15;31.10;;;21.00;;
1885;SDS011;943;51.568;6.998;2023-02-11T01:08:43;35.80;;;20.57;;
1885;SDS011;943;51.568;6.998;2023-02-11T01:11:13;35.33;;;21.40;;
1885;SDS011;943;51.568;6.998;2023-02-11T01:13:47;29.30;;;19.30;;
1885;SDS011;943;51.568;6.998;2023-02-11T01:16:17;38.20;;;22.10;;
1885;SDS011;943;51.568;6.998;2023-02-11T01:18:47;37.53;;;20.33;;
1885;SDS011;943;51.568;6.998;2023-02-11T01:21:16;37.73;;;22.23;;
1885;SDS011;943;51.568;6.998;2023-02-11T01:23:45;35.67;;;20.20;;
1885;SDS011;943;51.568;6.998;2023-02-11T01:26:12;34.30;;;21.33;;
1885;SDS011;943;51.568;6.998;2023-02-11T01:28:40;36.97;;;21.00;;
1885;SDS011;943;51.568;6.998;2023-02-11T01:31:08;38.00;;;21.30;;
1885;SDS011;943;51.568;6.998;2023-02-11T01:33:36;31.40;;;21.90;;
1885;SDS011;943;51.568;6.998;2023-02-11T01:36:05;39.53;;;20.80;;
1885;SDS011;943;51.568;6.998;2023-02-11T01:38:37;36.30;;;19.20;;
1885;SDS011;943;51.568;6.998;2023-02-11T01:41:07;31.70;;;20.73;;
1885;SDS011;943;51.568;6.998;2023-02-11T01:43:45;33.47;;;19.50;;
1885;SDS011;943;51.568;6.998;2023-02-11T01:46:27;30.47;;;19.67;;
1885;SDS011;943;51.568;6.998;2023-02-11T01:51:55;35.50;;;20.30;;
1885;SDS011;943;51.568;6.998;2023-02-11T01:54:58;30.90;;;18.83;;
1885;SDS011;943;51.568;6.998;2023-02-11T01:57:55;27.07;;;17.63;;
1885;SDS011;943;51.568;6.998;2023-02-11T02:00:34;32.93;;;19.80;;
1885;SDS011;943;51.568;6.998;2023-02-11T02:03:09;31.47;;;19.10;;
1885;SDS011;943;51.568;6.998;2023-02-11T02:05:52;28.93;;;17.10;;
1885;SDS011;943;51.568;6.998;2023-02-11T02:11:27;31.03;;;18.57;;
1885;SDS011;943;51.568;6.998;2023-02-11T02:13:55;33.80;;;18.97;;
1885;SDS011;943;51.568;6.998;2023-02-11T02:16:25;32.43;;;19.70;;
1885;SDS011;943;51.568;6.998;2023-02-11T02:22:51;30.20;;;19.43;;
1885;SDS011;943;51.568;6.998;2023-02-11T02:37:11;26.60;;;17.87;;
1885;SDS011;943;51.568;6.998;2023-02-11T02:39:32;28.20;;;18.40;;
1885;SDS011;943;51.568;6.998;2023-02-11T02:42:03;28.73;;;18.23;;
1885;SDS011;943;51.568;6.998;2023-02-11T02:44:32;27.33;;;18.53;;
1885;SDS011;943;51.568;6.998;2023-02-11T02:47:00;28.70;;;18.63;;
1885;SDS011;943;51.568;6.998;2023-02-11T02:49:28;32.37;;;19.73;;
1885;SDS011;943;51.568;6.998;2023-02-11T03:01:36;31.97;;;18.70;;
1885;SDS011;943;51.568;6.998;2023-02-11T03:05:22;26.40;;;18.27;;
1885;SDS011;943;51.568;6.998;2023-02-11T03:12:09;32.83;;;18.27;;
1885;SDS011;943;51.568;6.998;2023-02-11T03:14:41;30.67;;;18.40;;
1885;SDS011;943;51.568;6.998;2023-02-11T03:17:12;33.43;;;19.40;;
1885;SDS011;943;51.568;6.998;2023-02-11T03:19:45;38.13;;;19.73;;
1885;SDS011;943;51.568;6.998;2023-02-11T03:22:29;33.03;;;18.87;;
1885;SDS011;943;51.568;6.998;2023-02-11T03:25:13;29.27;;;17.07;;
1885;SDS011;943;51.568;6.998;2023-02-11T03:27:51;29.17;;;18.80;;
1885;SDS011;943;51.568;6.998;2023-02-11T03:37:50;34.47;;;18.30;;
1885;SDS011;943;51.568;6.998;2023-02-11T03:40:48;32.70;;;20.93;;
1885;SDS011;943;51.568;6.998;2023-02-11T03:43:21;34.13;;;19.50;;
1885;SDS011;943;51.568;6.998;2023-02-11T03:46:02;38.87;;;23.73;;
1885;SDS011;943;51.568;6.998;2023-02-11T03:48:35;35.30;;;21.80;;
1885;SDS011;943;51.568;6.998;2023-02-11T03:51:19;39.10;;;22.00;;
1885;SDS011;943;51.568;6.998;2023-02-11T03:53:54;32.23;;;20.33;;
1885;SDS011;943;51.568;6.998;2023-02-11T03:56:31;33.07;;;22.50;;
1885;SDS011;943;51.568;6.998;2023-02-11T03:59:14;29.40;;;21.13;;
1885;SDS011;943;51.568;6.998;2023-02-11T04:01:42;28.57;;;19.17;;
1885;SDS011;943;51.568;6.998;2023-02-11T04:04:10;34.20;;;21.17;;
1885;SDS011;943;51.568;6.998;2023-02-11T04:06:38;34.13;;;21.33;;
1885;SDS011;943;51.568;6.998;2023-02-11T04:09:06;33.77;;;20.57;;
1885;SDS011;943;51.568;6.998;2023-02-11T04:11:35;40.20;;;20.83;;
1885;SDS011;943;51.568;6.998;2023-02-11T04:14:03;35.30;;;20.50;;
1885;SDS011;943;51.568;6.998;2023-02-11T04:16:31;36.33;;;21.40;;
1885;SDS011;943;51.568;6.998;2023-02-11T04:18:59;34.93;;;20.27;;
1885;SDS011;943;51.568;6.998;2023-02-11T04:21:27;32.37;;;18.67;;
1885;SDS011;943;51.568;6.998;2023-02-11T04:23:55;50.40;;;21.20;;
1885;SDS011;943;51.568;6.998;2023-02-11T04:26:22;37.67;;;20.50;;
1885;SDS011;943;51.568;6.998;2023-02-11T04:28:50;32.57;;;20.10;;
1885;SDS011;943;51.568;6.998;2023-02-11T04:31:18;35.87;;;21.10;;
1885;SDS011;943;51.568;6.998;2023-02-11T04:33:46;29.90;;;20.03;;
1885;SDS011;943;51.568;6.998;2023-02-11T04:36:14;37.60;;;21.70;;
1885;SDS011;943;51.568;6.998;2023-02-11T04:38:41;32.33;;;19.93;;
1885;SDS011;943;51.568;6.998;2023-02-11T04:41:09;43.50;;;23.67;;
1885;SDS011;943;51.568;6.998;2023-02-11T04:43:37;34.13;;;22.80;;
1885;SDS011;943;51.568;6.998;2023-02-11T04:46:04;45.40;;;23.80;;
1885;SDS011;943;51.568;6.998;2023-02-11T04:48:32;33.90;;;23.57;;
1885;SDS011;943;51.568;6.998;2023-02-11T04:51:01;38.90;;;23.83;;
1885;SDS011;943;51.568;6.998;2023-02-11T04:53:29;43.33;;;24.60;;
1885;SDS011;943;51.568;6.998;2023-02-11T04:55:57;46.00;;;25.63;;
1885;SDS011;943;51.568;6.998;2023-02-11T04:58:24;40.23;;;23.37;;
1885;SDS011;943;51.568;6.998;2023-02-11T05:00:52;33.30;;;22.70;;
1885;SDS011;943;51.568;6.998;2023-02-11T05:03:20;40.13;;;24.43;;
1885;SDS011;943;51.568;6.998;2023-02-11T05:05:48;41.73;;;23.30;;
1885;SDS011;943;51.568;6.998;2023-02-11T05:08:17;31.40;;;20.57;;
1885;SDS011;943;51.568;6.998;2023-02-11T05:10:45;46.70;;;25.67;;
1885;SDS011;943;51.568;6.998;2023-02-11T05:13:13;40.13;;;25.13;;
1885;SDS011;943;51.568;6.998;2023-02-11T05:15:43;35.17;;;24.70;;
1885;SDS011;943;51.568;6.998;2023-02-11T05:18:11;34.73;;;23.37;;
1885;SDS011;943;51.568;6.998;2023-02-11T05:20:40;42.03;;;24.80;;
1885;SDS011;943;51.568;6.998;2023-02-11T05:23:10;39.00;;;24.80;;
1885;SDS011;943;51.568;6.998;2023-02-11T05:25:38;35.63;;;22.73;;
1885;SDS011;943;51.568;6.998;2023-02-11T05:28:06;39.50;;;23.60;;
1885;SDS011;943;51.568;6.998;2023-02-11T05:30:34;46.07;;;23.80;;
1885;SDS011;943;51.568;6.998;2023-02-11T05:33:02;41.23;;;25.07;;
1885;SDS011;943;51.568;6.998;2023-02-11T05:35:30;40.80;;;24.40;;
1885;SDS011;943;51.568;6.998;2023-02-11T05:37:58;37.07;;;24.87;;
1885;SDS011;943;51.568;6.998;2023-02-11T05:40:25;41.53;;;25.80;;
1885;SDS011;943;51.568;6.998;2023-02-11T05:42:53;38.13;;;25.23;;
1885;SDS011;943;51.568;6.998;2023-02-11T05:45:21;47.60;;;25.57;;
1885;SDS011;943;51.568;6.998;2023-02-11T05:47:48;41.10;;;25.13;;
1885;SDS011;943;51.568;6.998;2023-02-11T05:50:16;45.57;;;24.23;;
1885;SDS011;943;51.568;6.998;2023-02-11T05:52:45;40.30;;;24.20;;
1885;SDS011;943;51.568;6.998;2023-02-11T05:55:13;37.50;;;23.80;;
1885;SDS011;943;51.568;6.998;2023-02-11T05:57:41;39.73;;;25.37;;
1885;SDS011;943;51.568;6.998;2023-02-11T06:00:09;50.50;;;25.27;;
1885;SDS011;943;51.568;6.998;2023-02-11T06:02:38;48.07;;;24.50;;
1885;SDS011;943;51.568;6.998;2023-02-11T06:05:06;39.13;;;25.00;;
1885;SDS011;943;51.568;6.998;2023-02-11T06:07:35;36.80;;;24.20;;
1885;SDS011;943;51.568;6.998;2023-02-11T06:10:06;45.63;;;26.03;;
1885;SDS011;943;51.568;6.998;2023-02-11T06:12:37;56.00;;;26.97;;
1885;SDS011;943;51.568;6.998;2023-02-11T06:15:06;43.13;;;26.40;;
1885;SDS011;943;51.568;6.998;2023-02-11T06:17:34;39.20;;;23.57;;
1885;SDS011;943;51.568;6.998;2023-02-11T06:20:04;44.97;;;27.87;;
1885;SDS011;943;51.568;6.998;2023-02-11T06:22:36;46.67;;;27.67;;
1885;SDS011;943;51.568;6.998;2023-02-11T06:25:04;45.40;;;28.73;;
1885;SDS011;943;51.568;6.998;2023-02-11T06:27:32;49.93;;;28.60;;
1885;SDS011;943;51.568;6.998;2023-02-11T06:30:00;46.27;;;27.40;;
1885;SDS011;943;51.568;6.998;2023-02-11T06:32:30;44.80;;;27.37;;
1885;SDS011;943;51.568;6.998;2023-02-11T06:35:10;56.10;;;31.47;;
1885;SDS011;943;51.568;6.998;2023-02-11T06:37:40;44.30;;;26.10;;
1885;SDS011;943;51.568;6.998;2023-02-11T06:40:09;49.13;;;27.60;;
1885;SDS011;943;51.568;6.998;2023-02-11T06:42:38;50.73;;;27.47;;
1885;SDS011;943;51.568;6.998;2023-02-11T06:45:06;50.13;;;31.50;;
1885;SDS011;943;51.568;6.998;2023-02-11T06:47:36;54.90;;;31.40;;
1885;SDS011;943;51.568;6.998;2023-02-11T06:50:06;63.63;;;31.70;;
1885;SDS011;943;51.568;6.998;2023-02-11T06:52:40;61.10;;;30.70;;
1885;SDS011;943;51.568;6.998;2023-02-11T06:55:08;67.53;;;31.27;;
1885;SDS011;943;51.568;6.998;2023-02-11T06:57:35;63.33;;;32.50;;
1885;SDS011;943;51.568;6.998;2023-02-11T07:00:03;53.37;;;30.80;;
1885;SDS011;943;51.568;6.998;2023-02-11T07:02:33;61.17;;;33.80;;
1885;SDS011;943;51.568;6.998;2023-02-11T07:05:03;57.17;;;30.33;;
1885;SDS011;943;51.568;6.998;2023-02-11T07:07:33;57.30;;;30.67;;
1885;SDS011;943;51.568;6.998;2023-02-11T07:10:03;56.53;;;32.53;;
1885;SDS011;943;51.568;6.998;2023-02-11T07:12:32;55.73;;;31.63;;
1885;SDS011;943;51.568;6.998;2023-02-11T07:14:59;53.30;;;31.33;;
1885;SDS011;943;51.568;6.998;2023-02-11T07:17:28;58.90;;;32.20;;
1885;SDS011;943;51.568;6.998;2023-02-11T07:19:55;49.17;;;29.93;;
1885;SDS011;943;51.568;6.998;2023-02-11T07:22:23;65.57;;;31.13;;
1885;SDS011;943;51.568;6.998;2023-02-11T07:24:51;66.83;;;31.83;;
1885;SDS011;943;51.568;6.998;2023-02-11T07:27:19;59.93;;;33.43;;
1885;SDS011;943;51.568;6.998;2023-02-11T07:29:47;61.73;;;31.37;;
1885;SDS011;943;51.568;6.998;2023-02-11T07:32:14;53.23;;;33.27;;
1885;SDS011;943;51.568;6.998;2023-02-11T07:34:42;55.73;;;29.37;;
1885;SDS011;943;51.568;6.998;2023-02-11T07:37:11;54.50;;;29.40;;
1885;SDS011;943;51.568;6.998;2023-02-11T07:39:38;64.30;;;29.90;;
1885;SDS011;943;51.568;6.998;2023-02-11T07:42:06;56.23;;;29.33;;
1885;SDS011;943;51.568;6.998;2023-02-11T07:44:34;52.40;;;30.90;;
1885;SDS011;943;51.568;6.998;2023-02-11T07:47:02;54.33;;;30.30;;
1885;SDS011;943;51.568;6.998;2023-02-11T07:49:30;51.70;;;29.57;;
1885;SDS011;943;51.568;6.998;2023-02-11T07:51:58;59.20;;;29.00;;
1885;SDS011;943;51.568;6.998;2023-02-11T07:54:26;51.27;;;28.37;;
1885;SDS011;943;51.568;6.998;2023-02-11T07:56:54;58.60;;;28.13;;
1885;SDS011;943;51.568;6.998;2023-02-11T07:59:21;55.30;;;29.10;;
1885;SDS011;943;51.568;6.998;2023-02-11T08:01:50;46.60;;;27.93;;
1885;SDS011;943;51.568;6.998;2023-02-11T08:04:18;53.13;;;30.33;;
1885;SDS011;943;51.568;6.998;2023-02-11T08:06:46;47.50;;;27.17;;
1885;SDS011;943;51.568;6.998;2023-02-11T08:09:14;58.77;;;25.60;;
1885;SDS011;943;51.568;6.998;2023-02-11T08:11:42;53.43;;;28.30;;
1885;SDS011;943;51.568;6.998;2023-02-11T08:14:11;55.07;;;28.47;;
1885;SDS011;943;51.568;6.998;2023-02-11T08:16:39;56.63;;;29.07;;
1885;SDS011;943;51.568;6.998;2023-02-11T08:19:13;55.43;;;27.03;;
1885;SDS011;943;51.568;6.998;2023-02-11T08:21:42;51.77;;;25.70;;
1885;SDS011;943;51.568;6.998;2023-02-11T08:24:13;51.00;;;28.17;;
1885;SDS011;943;51.568;6.998;2023-02-11T08:26:41;48.00;;;26.80;;
1885;SDS011;943;51.568;6.998;2023-02-11T08:29:10;48.10;;;27.70;;
1885;SDS011;943;51.568;6.998;2023-02-11T08:31:43;47.83;;;26.67;;
1885;SDS011;943;51.568;6.998;2023-02-11T08:34:13;38.70;;;25.57;;
1885;SDS011;943;51.568;6.998;2023-02-11T08:36:45;44.17;;;25.73;;
1885;SDS011;943;51.568;6.998;2023-02-11T08:39:15;46.50;;;25.57;;
1885;SDS011;943;51.568;6.998;2023-02-11T08:41:49;50.13;;;26.70;;
1885;SDS011;943;51.568;6.998;2023-02-11T08:44:22;54.63;;;27.67;;
1885;SDS011;943;51.568;6.998;2023-02-11T08:46:51;54.63;;;27.77;;
1885;SDS011;943;51.568;6.998;2023-02-11T08:49:19;54.30;;;28.47;;
1885;SDS011;943;51.568;6.998;2023-02-11T08:51:48;46.63;;;28.20;;
1885;SDS011;943;51.568;6.998;2023-02-11T08:54:16;55.23;;;29.37;;
1885;SDS011;943;51.568;6.998;2023-02-11T08:56:44;49.90;;;29.23;;
1885;SDS011;943;51.568;6.998;2023-02-11T08:59:17;55.73;;;28.17;;
1885;SDS011;943;51.568;6.998;2023-02-11T09:01:45;61.13;;;28.50;;
1885;SDS011;943;51.568;6.998;2023-02-11T09:04:17;56.50;;;30.20;;
1885;SDS011;943;51.568;6.998;2023-02-11T09:06:45;54.37;;;31.83;;
1885;SDS011;943;51.568;6.998;2023-02-11T09:09:14;56.00;;;27.73;;
1885;SDS011;943;51.568;6.998;2023-02-11T09:11:43;54.20;;;29.33;;
1885;SDS011;943;51.568;6.998;2023-02-11T09:14:16;57.47;;;31.90;;
1885;SDS011;943;51.568;6.998;2023-02-11T09:16:49;56.27;;;28.67;;
1885;SDS011;943;51.568;6.998;2023-02-11T09:19:19;51.20;;;29.70;;
1885;SDS011;943;51.568;6.998;2023-02-11T09:21:48;55.87;;;30.47;;
1885;SDS011;943;51.568;6.998;2023-02-11T09:24:17;51.17;;;27.80;;
1885;SDS011;943;51.568;6.998;2023-02-11T09:26:45;56.47;;;30.60;;
1885;SDS011;943;51.568;6.998;2023-02-11T09:29:12;54.63;;;30.80;;
1885;SDS011;943;51.568;6.998;2023-02-11T09:31:40;55.43;;;28.77;;
1885;SDS011;943;51.568;6.998;2023-02-11T09:34:09;50.00;;;26.63;;
1885;SDS011;943;51.568;6.998;2023-02-11T09:36:38;50.80;;;28.67;;
1885;SDS011;943;51.568;6.998;2023-02-11T09:39:11;53.00;;;29.93;;
1885;SDS011;943;51.568;6.998;2023-02-11T09:45:29;56.70;;;30.40;;
1885;SDS011;943;51.568;6.998;2023-02-11T09:50:42;46.67;;;30.53;;
1885;SDS011;943;51.568;6.998;2023-02-11T09:53:28;55.83;;;30.70;;
1885;SDS011;943;51.568;6.998;2023-02-11T09:56:11;58.73;;;30.77;;
1885;SDS011;943;51.568;6.998;2023-02-11T09:58:42;68.30;;;33.80;;
1885;SDS011;943;51.568;6.998;2023-02-11T10:07:33;51.33;;;30.80;;
1885;SDS011;943;51.568;6.998;2023-02-11T10:19:26;67.33;;;35.00;;
1885;SDS011;943;51.568;6.998;2023-02-11T10:22:17;63.23;;;34.40;;
1885;SDS011;943;51.568;6.998;2023-02-11T10:25:17;63.30;;;35.90;;
1885;SDS011;943;51.568;6.998;2023-02-11T10:28:15;69.87;;;36.70;;
1885;SDS011;943;51.568;6.998;2023-02-11T10:31:12;66.20;;;33.07;;
1885;SDS011;943;51.568;6.998;2023-02-11T10:36:34;55.30;;;31.97;;
1885;SDS011;943;51.568;6.998;2023-02-11T10:39:17;65.27;;;31.90;;
1885;SDS011;943;51.568;6.998;2023-02-11T10:42:00;62.07;;;34.40;;
1885;SDS011;943;51.568;6.998;2023-02-11T10:44:40;69.43;;;31.47;;
1885;SDS011;943;51.568;6.998;2023-02-11T10:47:34;69.53;;;35.47;;
1885;SDS011;943;51.568;6.998;2023-02-11T10:50:20;57.60;;;33.77;;
1885;SDS011;943;51.568;6.998;2023-02-11T10:53:19;58.13;;;33.70;;
1885;SDS011;943;51.568;6.998;2023-02-11T10:55:48;63.03;;;33.90;;
1885;SDS011;943;51.568;6.998;2023-02-11T10:58:25;64.33;;;35.03;;
1885;SDS011;943;51.568;6.998;2023-02-11T11:01:11;63.30;;;36.43;;
1885;SDS011;943;51.568;6.998;2023-02-11T11:03:51;66.33;;;35.57;;
1885;SDS011;943;51.568;6.998;2023-02-11T11:06:29;72.67;;;35.67;;
1885;SDS011;943;51.568;6.998;2023-02-11T11:09:00;63.60;;;36.20;;
1885;SDS011;943;51.568;6.998;2023-02-11T11:11:28;61.20;;;33.23;;
1885;SDS011;943;51.568;6.998;2023-02-11T11:13:59;65.30;;;33.50;;
1885;SDS011;943;51.568;6.998;2023-02-11T11:16:29;60.80;;;34.33;;
1885;SDS011;943;51.568;6.998;2023-02-11T11:21:36;55.57;;;30.37;;
1885;SDS011;943;51.568;6.998;2023-02-11T11:24:20;61.67;;;31.03;;
1885;SDS011;943;51.568;6.998;2023-02-11T11:27:03;56.93;;;31.00;;
1885;SDS011;943;51.568;6.998;2023-02-11T11:29:33;59.33;;;33.37;;
1885;SDS011;943;51.568;6.998;2023-02-11T11:32:40;62.10;;;31.27;;
1885;SDS011;943;51.568;6.998;2023-02-11T11:35:26;61.80;;;31.40;;
1885;SDS011;943;51.568;6.998;2023-02-11T11:38:01;55.10;;;31.80;;
1885;SDS011;943;51.568;6.998;2023-02-11T11:40:32;51.10;;;28.33;;
1885;SDS011;943;51.568;6.998;2023-02-11T11:45:39;61.53;;;31.13;;
1885;SDS011;943;51.568;6.998;2023-02-11T11:48:25;65.07;;;31.17;;
1885;SDS011;943;51.568;6.998;2023-02-11T11:51:12;53.23;;;30.50;;
1885;SDS011;943;51.568;6.998;2023-02-11T11:53:41;57.23;;;29.50;;
1885;SDS011;943;51.568;6.998;2023-02-11T11:56:34;58.40;;;31.90;;
1885;SDS011;943;51.568;6.998;2023-02-11T11:59:27;55.20;;;29.90;;
1885;SDS011;943;51.568;6.998;2023-02-11T12:09:45;60.07;;;32.43;;
1885;SDS011;943;51.568;6.998;2023-02-11T12:12:50;68.97;;;33.77;;
1885;SDS011;943;51.568;6.998;2023-02-11T12:16:06;74.10;;;36.83;;
1885;SDS011;943;51.568;6.998;2023-02-11T12:25:55;61.57;;;31.63;;
1885;SDS011;943;51.568;6.998;2023-02-11T12:57:37;55.03;;;34.20;;
1885;SDS011;943;51.568;6.998;2023-02-11T13:00:17;60.30;;;33.27;;
1885;SDS011;943;51.568;6.998;2023-02-11T13:05:39;58.67;;;32.33;;
1885;SDS011;943;51.568;6.998;2023-02-11T13:08:32;58.40;;;30.73;;
1885;SDS011;943;51.568;6.998;2023-02-11T13:11:16;66.33;;;34.63;;
1885;SDS011;943;51.568;6.998;2023-02-11T13:14:14;59.87;;;32.77;;
1885;SDS011;943;51.568;6.998;2023-02-11T13:17:12;54.73;;;34.40;;
1885;SDS011;943;51.568;6.998;2023-02-11T13:20:34;55.90;;;31.30;;
1885;SDS011;943;51.568;6.998;2023-02-11T13:23:26;55.87;;;30.47;;
1885;SDS011;943;51.568;6.998;2023-02-11T13:33:03;58.30;;;31.23;;
1885;SDS011;943;51.568;6.998;2023-02-11T13:35:44;57.90;;;32.37;;
1885;SDS011;943;51.568;6.998;2023-02-11T13:38:40;60.80;;;32.40;;
1885;SDS011;943;51.568;6.998;2023-02-11T13:44:22;55.00;;;31.60;;
1885;SDS011;943;51.568;6.998;2023-02-11T13:46:58;74.07;;;44.30;;
1885;SDS011;943;51.568;6.998;2023-02-11T13:49:40;61.27;;;34.03;;
1885;SDS011;943;51.568;6.998;2023-02-11T13:55:08;57.97;;;31.17;;
1885;SDS011;943;51.568;6.998;2023-02-11T14:06:24;61.93;;;30.60;;
1885;SDS011;943;51.568;6.998;2023-02-11T14:11:47;49.60;;;28.60;;
1885;SDS011;943;51.568;6.998;2023-02-11T14:14:25;50.90;;;27.17;;
1885;SDS011;943;51.568;6.998;2023-02-11T14:22:17;46.17;;;29.40;;
1885;SDS011;943;51.568;6.998;2023-02-11T14:25:41;37.37;;;24.33;;
1885;SDS011;943;51.568;6.998;2023-02-11T14:28:10;40.83;;;25.10;;
1885;SDS011;943;51.568;6.998;2023-02-11T14:31:06;41.87;;;25.57;;
1885;SDS011;943;51.568;6.998;2023-02-11T14:44:12;36.23;;;22.87;;
1885;SDS011;943;51.568;6.998;2023-02-11T14:47:04;44.17;;;26.57;;
1885;SDS011;943;51.568;6.998;2023-02-11T14:49:41;44.57;;;25.00;;
1885;SDS011;943;51.568;6.998;2023-02-11T14:52:24;34.23;;;22.97;;
1885;SDS011;943;51.568;6.998;2023-02-11T14:55:21;46.10;;;24.67;;
1885;SDS011;943;51.568;6.998;2023-02-11T14:58:23;35.80;;;23.60;;
1885;SDS011;943;51.568;6.998;2023-02-11T15:01:03;34.03;;;21.43;;
1885;SDS011;943;51.568;6.998;2023-02-11T15:04:21;39.20;;;24.40;;
1885;SDS011;943;51.568;6.998;2023-02-11T15:07:05;32.63;;;23.03;;
1885;SDS011;943;51.568;6.998;2023-02-11T15:09:45;36.90;;;22.90;;
1885;SDS011;943;51.568;6.998;2023-02-11T15:12:23;36.27;;;23.07;;
1885;SDS011;943;51.568;6.998;2023-02-11T15:15:10;35.27;;;23.47;;
1885;SDS011;943;51.568;6.998;2023-02-11T15:17:43;38.53;;;24.20;;
1885;SDS011;943;51.568;6.998;2023-02-11T15:20:34;35.97;;;23.63;;
1885;SDS011;943;51.568;6.998;2023-02-11T15:23:10;40.10;;;22.90;;
1885;SDS011;943;51.568;6.998;2023-02-11T15:25:57;43.70;;;25.50;;
1885;SDS011;943;51.568;6.998;2023-02-11T15:28:33;42.67;;;26.33;;
1885;SDS011;943;51.568;6.998;2023-02-11T15:31:14;41.93;;;25.73;;
1885;SDS011;943;51.568;6.998;2023-02-11T15:33:51;43.60;;;26.20;;
1885;SDS011;943;51.568;6.998;2023-02-11T15:36:27;43.53;;;26.10;;
1885;SDS011;943;51.568;6.998;2023-02-11T15:42:24;39.40;;;25.13;;
1885;SDS011;943;51.568;6.998;2023-02-11T15:48:14;43.87;;;24.70;;
1885;SDS011;943;51.568;6.998;2023-02-11T15:51:21;40.87;;;25.20;;
1885;SDS011;943;51.568;6.998;2023-02-11T15:54:16;42.67;;;25.63;;
1885;SDS011;943;51.568;6.998;2023-02-11T15:57:04;49.63;;;27.07;;
1885;SDS011;943;51.568;6.998;2023-02-11T15:59:44;37.77;;;24.97;;
1885;SDS011;943;51.568;6.998;2023-02-11T16:08:16;41.20;;;25.47;;
1885;SDS011;943;51.568;6.998;2023-02-11T16:11:01;40.37;;;25.30;;
1885;SDS011;943;51.568;6.998;2023-02-11T16:13:44;46.27;;;26.53;;
1885;SDS011;943;51.568;6.998;2023-02-11T16:16:21;45.47;;;26.57;;
1885;SDS011;943;51.568;6.998;2023-02-11T16:19:03;37.90;;;23.73;;
1885;SDS011;943;51.568;6.998;2023-02-11T16:21:52;48.70;;;28.03;;
1885;SDS011;943;51.568;6.998;2023-02-11T16:24:47;44.07;;;26.13;;
1885;SDS011;943;51.568;6.998;2023-02-11T16:27:33;43.07;;;25.10;;
1885;SDS011;943;51.568;6.998;2023-02-11T16:33:12;50.17;;;29.37;;
1885;SDS011;943;51.568;6.998;2023-02-11T16:35:40;45.33;;;28.40;;
1885;SDS011;943;51.568;6.998;2023-02-11T16:38:10;52.30;;;30.83;;
1885;SDS011;943;51.568;6.998;2023-02-11T16:40:38;57.67;;;33.30;;
1885;SDS011;943;51.568;6.998;2023-02-11T16:43:06;51.53;;;30.00;;
1885;SDS011;943;51.568;6.998;2023-02-11T16:45:37;53.83;;;32.20;;
1885;SDS011;943;51.568;6.998;2023-02-11T16:48:06;58.87;;;33.40;;
1885;SDS011;943;51.568;6.998;2023-02-11T16:50:44;60.37;;;33.80;;
1885;SDS011;943;51.568;6.998;2023-02-11T16:53:20;49.10;;;29.77;;
1885;SDS011;943;51.568;6.998;2023-02-11T16:55:51;47.87;;;29.33;;
1885;SDS011;943;51.568;6.998;2023-02-11T16:58:19;56.60;;;32.67;;
1885;SDS011;943;51.568;6.998;2023-02-11T17:00:47;59.10;;;30.00;;
1885;SDS011;943;51.568;6.998;2023-02-11T17:03:20;64.87;;;33.40;;
1885;SDS011;943;51.568;6.998;2023-02-11T17:05:55;53.23;;;31.33;;
1885;SDS011;943;51.568;6.998;2023-02-11T17:08:23;60.30;;;33.87;;
1885;SDS011;943;51.568;6.998;2023-02-11T17:10:51;63.60;;;32.43;;
1885;SDS011;943;51.568;6.998;2023-02-11T17:13:19;60.03;;;31.93;;
1885;SDS011;943;51.568;6.998;2023-02-11T17:15:47;62.87;;;33.33;;
1885;SDS011;943;51.568;6.998;2023-02-11T17:18:15;59.43;;;31.97;;
1885;SDS011;943;51.568;6.998;2023-02-11T17:20:43;59.47;;;32.30;;
1885;SDS011;943;51.568;6.998;2023-02-11T17:23:12;61.00;;;31.83;;
1885;SDS011;943;51.568;6.998;2023-02-11T17:25:40;60.90;;;31.60;;
1885;SDS011;943;51.568;6.998;2023-02-11T17:28:08;59.87;;;31.77;;
1885;SDS011;943;51.568;6.998;2023-02-11T17:30:38;59.70;;;32.90;;
1885;SDS011;943;51.568;6.998;2023-02-11T17:33:09;63.03;;;32.93;;
1885;SDS011;943;51.568;6.998;2023-02-11T17:35:39;53.83;;;32.50;;
1885;SDS011;943;51.568;6.998;2023-02-11T17:38:07;52.37;;;31.67;;
1885;SDS011;943;51.568;6.998;2023-02-11T17:40:35;55.43;;;30.87;;
1885;SDS011;943;51.568;6.998;2023-02-11T17:43:03;61.50;;;31.37;;
1885;SDS011;943;51.568;6.998;2023-02-11T17:45:31;53.07;;;32.23;;
1885;SDS011;943;51.568;6.998;2023-02-11T17:47:59;58.87;;;32.30;;
1885;SDS011;943;51.568;6.998;2023-02-11T17:50:27;54.73;;;32.10;;
1885;SDS011;943;51.568;6.998;2023-02-11T17:52:55;62.97;;;31.17;;
1885;SDS011;943;51.568;6.998;2023-02-11T17:55:23;52.50;;;31.60;;
1885;SDS011;943;51.568;6.998;2023-02-11T17:57:51;68.80;;;35.27;;
1885;SDS011;943;51.568;6.998;2023-02-11T18:00:19;58.67;;;31.80;;
1885;SDS011;943;51.568;6.998;2023-02-11T18:02:48;60.83;;;33.23;;
1885;SDS011;943;51.568;6.998;2023-02-11T18:05:16;64.43;;;34.83;;
1885;SDS011;943;51.568;6.998;2023-02-11T18:07:44;60.80;;;33.60;;
1885;SDS011;943;51.568;6.998;2023-02-11T18:10:13;60.03;;;31.90;;
1885;SDS011;943;51.568;6.998;2023-02-11T18:12:41;58.90;;;32.10;;
1885;SDS011;943;51.568;6.998;2023-02-11T18:15:09;65.93;;;34.53;;
1885;SDS011;943;51.568;6.998;2023-02-11T18:17:37;64.23;;;35.40;;
1885;SDS011;943;51.568;6.998;2023-02-11T18:20:05;56.67;;;30.97;;
1885;SDS011;943;51.568;6.998;2023-02-11T18:22:34;62.53;;;35.70;;
1885;SDS011;943;51.568;6.998;2023-02-11T18:25:06;61.07;;;33.57;;
1885;SDS011;943;51.568;6.998;2023-02-11T18:27:36;54.50;;;32.43;;
1885;SDS011;943;51.568;6.998;2023-02-11T18:30:04;62.57;;;36.00;;
1885;SDS011;943;51.568;6.998;2023-02-11T18:32:41;69.77;;;36.80;;
1885;SDS011;943;51.568;6.998;2023-02-11T18:35:10;57.00;;;37.00;;
1885;SDS011;943;51.568;6.998;2023-02-11T18:37:41;56.33;;;35.23;;